Luling, Texas
Current Conditions -  °F | °C
As of 8:35 PM on Tuesday 21 Oct 2014 (Local Time) from KT20 Reporting Station
Clear Clear  
Wind Chill: 72°   Ceiling: Unl
Heat Index: 72°   Visibility: 10mi
Dew Point: 49°   Wind: 6mph
Humidity: 44%   Direction: 70°ENE
Pressure: 30.01"   Gusts: NA
Location:  29.68°N, 97.65°W
Report Text: KT20 220135Z AUTO 07005KT 10SM CLR 22/10 A3001 RMK AO2 T02230096
Loading
Personal Weather Stations






























Interactive Weather Map
Tropical Storm Tracking
New forecast layout! Learn more

10-Day Weather Forecast

Advertisements
Track Severe Weather on mobile